Time;durP1;ratioP1;P1;durP2;ratioP2;P2;SDS_P1;SDS_P2;PMS_P1;PMS_P2;Temp;Humidity;BMP_temperature;BMP_pressure;BME280_temperature;BME280_humidity;BME280_pressure;Samples;Min_cycle;Max_cycle;Signal;HPM_P1;HPM_P2
2023/09/16 00:01:08;;;;;;;;;;;;;;;25.87;42.24;101627.81;5014465;28;19953;-64
2023/09/16 00:03:35;;;;;;;;;;;;;;;25.88;42.01;101637.47;5073661;28;19951;-64
2023/09/16 00:06:00;;;;;;;;;;;;;;;25.88;42.26;101621.44;5012226;28;19961;-64
2023/09/16 00:08:26;;;;;;;;;;;;;;;25.87;41.91;101625.13;5071118;28;19938;-64
2023/09/16 00:10:51;;;;;;;;;;;;;;;25.87;42.03;101625.13;5013740;28;20854;-64
2023/09/16 00:13:17;;;;;;;;;;;;;;;25.88;42.10;101620.63;5072079;28;19968;-64
2023/09/16 00:15:48;;;;;;;;;;;;;;;25.87;42.19;101616.31;5046059;28;19952;-64
2023/09/16 00:18:14;;;;;;;;;;;;;;;25.87;41.86;101613.66;5071421;28;19939;-63
2023/09/16 00:20:39;;;;;;;;;;;;;;;25.69;42.16;101576.84;5009744;28;25726;-62
2023/09/16 00:23:06;;;;;;;;;;;;;;;25.86;42.17;101615.50;5066779;28;19939;-64
2023/09/16 00:25:33;;;;;;;;;;;;;;;25.87;41.82;101618.97;5022161;28;19965;-64
2023/09/16 00:28:06;;;;;;;;;;;;;;;25.86;41.93;101615.50;5059650;28;19934;-66
2023/09/16 00:30:33;;;;;;;;;;;;;;;25.85;42.14;101613.84;5040831;28;19937;-66
2023/09/16 00:33:04;;;;;;;;;;;;;;;25.83;42.11;101610.53;5059343;28;19939;-66
2023/09/16 00:35:29;;;;;;;;;;;;;;;25.83;42.22;101615.03;5005776;28;21065;-66
2023/09/16 00:37:55;;;;;;;;;;;;;;;25.84;42.08;101611.34;5061733;28;19938;-66
2023/09/16 00:40:20;;;;;;;;;;;;;;;25.81;42.02;101612.59;5056451;28;19986;-66
2023/09/16 00:42:46;;;;;;;;;;;;;;;25.84;41.82;101617.50;5067355;28;19933;-66
2023/09/16 00:45:12;;;;;;;;;;;;;;;25.85;42.15;101605.84;5003977;28;20072;-67
2023/09/16 00:47:40;;;;;;;;;;;;;;;25.82;41.88;101605.41;5060222;28;19938;-66
2023/09/16 00:50:07;;;;;;;;;;;;;;;25.83;42.22;101597.19;4982873;28;20071;-66
2023/09/16 00:52:37;;;;;;;;;;;;;;;25.83;42.26;101599.88;5092253;28;20769;-66
2023/09/16 00:55:03;;;;;;;;;;;;;;;25.84;42.12;101595.34;5000717;28;19958;-67
2023/09/16 00:57:29;;;;;;;;;;;;;;;25.83;42.11;101591.03;5046677;28;20804;-64
2023/09/16 00:59:55;;;;;;;;;;;;;;;25.83;42.21;101588.38;5059108;28;20421;-64
2023/09/16 01:02:25;;;;;;;;;;;;;;;25.82;42.19;101582.22;5039662;28;19941;-66
2023/09/16 01:04:55;;;;;;;;;;;;;;;25.81;42.19;101580.56;5060308;28;19997;-66
2023/09/16 01:07:24;;;;;;;;;;;;;;;25.82;42.16;101587.53;5027871;28;20382;-64
2023/09/16 01:09:50;;;;;;;;;;;;;;;25.81;42.19;101585.91;5035996;28;19950;-64
2023/09/16 01:12:15;;;;;;;;;;;;;;;25.82;41.87;101581.38;5067256;28;20307;-64
2023/09/16 01:14:40;;;;;;;;;;;;;;;25.81;41.99;101577.06;5014574;28;20821;-64
2023/09/16 01:17:16;;;;;;;;;;;;;;;25.82;42.00;101574.22;5064182;28;19952;-64
2023/09/16 01:19:41;;;;;;;;;;;;;;;25.83;42.06;101580.38;5030337;28;19951;-64
2023/09/16 01:22:09;;;;;;;;;;;;;;;25.81;42.17;101569.91;5054959;28;19977;-64
2023/09/16 01:24:34;;;;;;;;;;;;;;;25.82;41.98;101573.38;5066818;28;19954;-64
2023/09/16 01:27:00;;;;;;;;;;;;;;;25.81;42.01;101569.91;5062396;28;19965;-65
2023/09/16 01:29:27;;;;;;;;;;;;;;;25.81;42.14;101569.06;5003881;28;19943;-67
2023/09/16 01:31:54;;;;;;;;;;;;;;;25.80;42.02;101562.09;5060334;28;20014;-67
2023/09/16 01:34:22;;;;;;;;;;;;;;;25.81;42.10;101567.22;5002931;28;19953;-64
2023/09/16 01:36:51;;;;;;;;;;;;;;;25.78;42.24;101570.31;5059579;28;19939;-64
2023/09/16 01:39:17;;;;;;;;;;;;;;;25.79;42.19;101566.59;5012238;28;20372;-64
2023/09/16 01:41:42;;;;;;;;;;;;;;;25.78;42.22;101575.63;5066847;28;20415;-64
2023/09/16 01:44:08;;;;;;;;;;;;;;;25.80;42.03;101568.25;5011488;28;19978;-64
2023/09/16 01:46:33;;;;;;;;;;;;;;;25.79;42.22;101569.28;5064167;28;20658;-64
2023/09/16 01:48:59;;;;;;;;;;;;;;;25.80;42.26;101559.44;5046796;28;20703;-64
2023/09/16 01:51:24;;;;;;;;;;;;;;;25.79;42.18;101561.28;5064124;28;19982;-64
2023/09/16 01:53:50;;;;;;;;;;;;;;;25.77;42.08;101563.31;5024321;28;19967;-64
2023/09/16 01:56:15;;;;;;;;;;;;;;;25.77;41.81;101554.50;5061813;28;19987;-64
2023/09/16 01:58:40;;;;;;;;;;;;;;;25.75;42.18;101551.22;5015366;28;19949;-64
2023/09/16 02:01:10;;;;;;;;;;;;;;;25.74;42.27;101563.72;5062845;28;20007;-64
2023/09/16 02:03:36;;;;;;;;;;;;;;;25.73;41.98;101570.09;5034339;28;19959;-64
2023/09/16 02:06:01;;;;;;;;;;;;;;;25.73;42.12;101567.44;5075914;28;19948;-64
2023/09/16 02:08:27;;;;;;;;;;;;;;;25.71;42.23;101561.47;5055841;28;19947;-64
2023/09/16 02:10:52;;;;;;;;;;;;;;;25.72;42.30;101563.13;5071205;28;19947;-64
2023/09/16 02:13:17;;;;;;;;;;;;;;;25.73;41.89;101567.44;5047566;27;19972;-66
2023/09/16 02:15:45;;;;;;;;;;;;;;;25.73;42.24;101561.28;5064300;28;20258;-66
2023/09/16 02:18:12;;;;;;;;;;;;;;;25.74;42.20;101558.41;5005978;28;19979;-66
2023/09/16 02:20:37;;;;;;;;;;;;;;;25.75;42.19;101562.72;5099253;27;19955;-66
2023/09/16 02:23:04;;;;;;;;;;;;;;;25.74;41.97;101562.91;5016890;28;19945;-63
2023/09/16 02:25:32;;;;;;;;;;;;;;;25.74;42.18;101552.25;5066167;28;19941;-64
2023/09/16 02:27:57;;;;;;;;;;;;;;;25.73;42.13;101555.94;5008671;28;19947;-64
2023/09/16 02:30:23;;;;;;;;;;;;;;;25.74;42.17;101563.72;5056014;28;19965;-64
2023/09/16 02:32:48;;;;;;;;;;;;;;;25.72;42.18;101560.44;5067900;28;19942;-64
2023/09/16 02:35:14;;;;;;;;;;;;;;;25.72;42.12;101560.44;5006164;28;19965;-63
2023/09/16 02:37:39;;;;;;;;;;;;;;;25.73;42.11;101556.75;5059545;28;19948;-64
2023/09/16 02:40:05;;;;;;;;;;;;;;;25.73;41.89;101555.94;5005039;28;20038;-64
2023/09/16 02:42:30;;;;;;;;;;;;;;;25.71;42.22;101561.47;5054284;28;19976;-64
2023/09/16 02:44:55;;;;;;;;;;;;;;;25.72;42.06;101570.28;5003148;28;20032;-64
2023/09/16 02:47:21;;;;;;;;;;;;;;;25.73;41.83;101563.94;5039925;28;19942;-64
2023/09/16 02:49:47;;;;;;;;;;;;;;;25.72;42.07;101560.44;5066163;28;20303;-66
2023/09/16 02:52:14;;;;;;;;;;;;;;;25.71;42.05;101556.13;5059242;28;19952;-64
2023/09/16 02:54:39;;;;;;;;;;;;;;;25.71;42.18;101564.13;4999157;28;19962;-64
2023/09/16 02:57:05;;;;;;;;;;;;;;;25.71;42.25;101555.31;5060558;28;20456;-64
2023/09/16 02:59:30;;;;;;;;;;;;;;;25.72;42.14;101564.97;5013920;28;20089;-64
2023/09/16 03:01:57;;;;;;;;;;;;;;;25.70;42.16;101561.69;5067726;28;20792;-64
2023/09/16 03:04:22;;;;;;;;;;;;;;;25.72;42.12;101554.28;4991709;28;19944;-64
2023/09/16 03:06:48;;;;;;;;;;;;;;;25.70;42.13;101557.16;5054144;28;19945;-64
2023/09/16 03:09:14;;;;;;;;;;;;;;;25.71;42.11;101553.47;5038665;28;19947;-64
2023/09/16 03:11:46;;;;;;;;;;;;;;;25.69;41.84;101550.19;5020725;28;20031;-64
2023/09/16 03:14:12;;;;;;;;;;;;;;;25.69;42.03;101546.69;5056551;28;19958;-64
2023/09/16 03:16:38;;;;;;;;;;;;;;;25.67;42.07;101557.50;5009560;28;19948;-65
2023/09/16 03:19:04;;;;;;;;;;;;;;;25.70;41.80;101549.16;5067931;28;19948;-64
2023/09/16 03:21:29;;;;;;;;;;;;;;;25.67;42.09;101554.84;5001977;28;19950;-64
2023/09/16 03:24:00;;;;;;;;;;;;;;;25.65;41.95;101554.22;5074445;28;20448;-64
2023/09/16 03:26:27;;;;;;;;;;;;;;;25.68;42.01;101553.06;4991309;28;20421;-64
2023/09/16 03:28:54;;;;;;;;;;;;;;;25.67;42.24;101551.34;5063342;28;20645;-64
2023/09/16 03:31:27;;;;;;;;;;;;;;;25.67;42.16;101546.03;5028173;28;20544;-66
2023/09/16 03:33:55;;;;;;;;;;;;;;;25.68;42.02;101542.38;5037993;28;19986;-66
2023/09/16 03:36:22;;;;;;;;;;;;;;;25.63;41.77;101534.94;5035585;28;20028;-64
2023/09/16 03:38:49;;;;;;;;;;;;;;;25.66;42.26;101539.88;5026188;28;19993;-64
2023/09/16 03:41:16;;;;;;;;;;;;;;;25.65;42.02;101537.41;5097621;27;19942;-65
2023/09/16 03:43:50;;;;;;;;;;;;;;;25.64;41.91;101533.91;5020053;28;21518;-63
2023/09/16 03:46:16;;;;;;;;;;;;;;;25.67;41.84;101538.00;5060153;28;19949;-64
2023/09/16 03:48:41;;;;;;;;;;;;;;;25.66;41.87;101539.03;5065408;28;19951;-64
2023/09/16 03:51:07;;;;;;;;;;;;;;;25.65;42.26;101532.06;5006058;28;19967;-64
2023/09/16 03:53:36;;;;;;;;;;;;;;;25.65;42.20;101540.06;5062737;28;19967;-64
2023/09/16 03:56:08;;;;;;;;;;;;;;;25.65;42.15;101530.22;5006618;28;19941;-64
2023/09/16 03:58:33;;;;;;;;;;;;;;;25.64;42.20;101531.25;5052735;28;20550;-64
2023/09/16 04:00:59;;;;;;;;;;;;;;;25.64;42.26;101533.09;5010295;28;19955;-67
2023/09/16 04:03:24;;;;;;;;;;;;;;;25.63;42.26;101526.13;5086920;27;20333;-66
2023/09/16 04:05:54;;;;;;;;;;;;;;;25.63;41.91;101531.44;5067773;28;20148;-66
2023/09/16 04:08:20;;;;;;;;;;;;;;;25.45;42.19;101503.50;5046330;28;19952;-66
2023/09/16 04:10:47;;;;;;;;;;;;;;;25.64;42.17;101531.25;5042262;28;19945;-66
2023/09/16 04:13:13;;;;;;;;;;;;;;;25.62;42.21;101538.63;5063868;28;20029;-66
2023/09/16 04:15:38;;;;;;;;;;;;;;;25.62;42.03;101535.97;5017337;28;19968;-67
2023/09/16 04:18:04;;;;;;;;;;;;;;;25.60;41.94;101538.00;5076654;28;19942;-66
2023/09/16 04:20:29;;;;;;;;;;;;;;;25.60;42.28;101533.50;5006130;28;20390;-64
2023/09/16 04:22:54;;;;;;;;;;;;;;;25.62;42.12;101535.97;5066892;28;19945;-64
2023/09/16 04:25:20;;;;;;;;;;;;;;;25.59;42.03;101531.84;4993910;28;19950;-66
2023/09/16 04:27:46;;;;;;;;;;;;;;;25.60;41.90;101532.69;5061695;28;20550;-66
2023/09/16 04:30:12;;;;;;;;;;;;;;;25.60;42.19;101525.50;5060510;28;19945;-66
2023/09/16 04:32:38;;;;;;;;;;;;;;;25.60;41.88;101525.50;4996839;28;20406;-64
2023/09/16 04:35:04;;;;;;;;;;;;;;;25.60;42.18;101533.50;5058346;28;19971;-64
2023/09/16 04:37:29;;;;;;;;;;;;;;;25.60;42.19;101532.69;4997143;28;19952;-64
2023/09/16 04:39:54;;;;;;;;;;;;;;;25.59;42.12;101531.84;5056937;28;19942;-64
2023/09/16 04:42:20;;;;;;;;;;;;;;;25.58;41.83;101521.38;5004560;28;20818;-64
2023/09/16 04:44:48;;;;;;;;;;;;;;;25.59;41.98;101520.38;5057327;28;20034;-64
2023/09/16 04:47:14;;;;;;;;;;;;;;;25.59;41.89;101521.19;4997960;28;21760;-64
2023/09/16 04:49:39;;;;;;;;;;;;;;;25.60;42.13;101525.50;5062185;28;19954;-64
2023/09/16 04:52:05;;;;;;;;;;;;;;;25.59;42.12;101526.53;4989036;28;19952;-64
2023/09/16 04:54:35;;;;;;;;;;;;;;;25.59;41.97;101529.19;5061340;28;19962;-64
2023/09/16 04:57:01;;;;;;;;;;;;;;;25.59;42.12;101528.38;5006459;28;19947;-64
2023/09/16 04:59:27;;;;;;;;;;;;;;;25.59;41.83;101523.84;5068998;28;20540;-64
2023/09/16 05:01:52;;;;;;;;;;;;;;;25.57;41.98;101535.75;5004413;28;20913;-67
2023/09/16 05:04:18;;;;;;;;;;;;;;;25.57;42.12;101527.75;5061817;28;20323;-66
2023/09/16 05:06:44;;;;;;;;;;;;;;;25.54;42.07;101531.66;5003033;28;20365;-66
2023/09/16 05:09:11;;;;;;;;;;;;;;;25.54;42.22;101536.16;5054786;28;19952;-66
2023/09/16 05:11:37;;;;;;;;;;;;;;;25.53;42.16;101535.34;5006446;28;21785;-66
2023/09/16 05:14:03;;;;;;;;;;;;;;;25.54;41.87;101530.81;5065826;28;19972;-66
2023/09/16 05:16:28;;;;;;;;;;;;;;;25.53;42.10;101524.66;5033321;28;20845;-64
2023/09/16 05:18:58;;;;;;;;;;;;;;;25.54;42.05;101536.97;5056672;28;20042;-64
2023/09/16 05:21:28;;;;;;;;;;;;;;;25.54;42.11;101528.16;5046888;28;20413;-64
2023/09/16 05:23:55;;;;;;;;;;;;;;;25.54;42.01;101538.81;5051684;28;19939;-64
2023/09/16 05:26:25;;;;;;;;;;;;;;;25.53;41.83;101530.00;5011661;28;19967;-64
2023/09/16 05:28:56;;;;;;;;;;;;;;;25.53;42.12;101526.50;5045225;28;19952;-64
2023/09/16 05:31:25;;;;;;;;;;;;;;;25.53;42.14;101531.84;5048017;28;19941;-66
2023/09/16 05:33:53;;;;;;;;;;;;;;;25.53;41.77;101527.34;5032418;28;19970;-64
2023/09/16 05:36:24;;;;;;;;;;;;;;;25.53;42.24;101523.84;5016832;28;19940;-65
2023/09/16 05:38:50;;;;;;;;;;;;;;;25.54;42.16;101526.31;5074698;28;19944;-64
2023/09/16 05:41:18;;;;;;;;;;;;;;;25.37;42.03;101508.22;5048031;28;19997;-64
2023/09/16 05:43:44;;;;;;;;;;;;;;;25.53;42.14;101531.84;5015195;28;19995;-66
2023/09/16 05:46:10;;;;;;;;;;;;;;;25.53;41.87;101531.84;5062616;28;20086;-66
2023/09/16 05:48:35;;;;;;;;;;;;;;;25.54;42.02;101525.50;5031569;28;19956;-66
2023/09/16 05:51:02;;;;;;;;;;;;;;;25.55;41.92;101529.81;5055863;28;19951;-67
2023/09/16 05:53:32;;;;;;;;;;;;;;;25.54;41.97;101520.97;5000753;28;20003;-66
2023/09/16 05:56:08;;;;;;;;;;;;;;;25.53;41.97;101526.50;5057124;28;19946;-66
2023/09/16 05:58:38;;;;;;;;;;;;;;;25.51;42.03;101528.56;5002917;28;20066;-66
2023/09/16 06:01:04;;;;;;;;;;;;;;;25.51;42.11;101531.22;5067208;28;19945;-66
2023/09/16 06:03:30;;;;;;;;;;;;;;;25.53;41.94;101526.50;5015687;28;20460;-66
2023/09/16 06:05:56;;;;;;;;;;;;;;;25.51;41.99;101531.22;5077594;28;19947;-66
2023/09/16 06:08:22;;;;;;;;;;;;;;;25.52;42.04;101533.69;5051060;28;20718;-66
2023/09/16 06:10:48;;;;;;;;;;;;;;;25.50;41.91;101533.06;5071147;28;19990;-66
2023/09/16 06:13:13;;;;;;;;;;;;;;;25.53;42.01;101535.34;5009409;28;19962;-66
2023/09/16 06:15:39;;;;;;;;;;;;;;;25.52;41.79;101531.03;5070730;28;20749;-66
2023/09/16 06:18:06;;;;;;;;;;;;;;;25.51;42.12;101534.72;5014078;28;19963;-66
2023/09/16 06:20:32;;;;;;;;;;;;;;;25.51;41.82;101534.72;5051734;28;19974;-67
2023/09/16 06:23:02;;;;;;;;;;;;;;;25.50;41.79;101540.25;5006018;28;19951;-66
2023/09/16 06:25:27;;;;;;;;;;;;;;;25.50;42.19;101537.59;5072341;28;19945;-66
2023/09/16 06:27:53;;;;;;;;;;;;;;;25.51;42.12;101542.72;5007230;28;20053;-66
2023/09/16 06:30:18;;;;;;;;;;;;;;;25.49;41.95;101542.06;5070491;28;19977;-66
2023/09/16 06:32:44;;;;;;;;;;;;;;;25.52;42.10;101538.19;5086959;27;19947;-66
2023/09/16 06:35:09;;;;;;;;;;;;;;;25.50;41.96;101540.25;5068907;28;19962;-66
2023/09/16 06:37:35;;;;;;;;;;;;;;;25.54;42.03;101536.16;5004138;28;20780;-66
2023/09/16 06:40:00;;;;;;;;;;;;;;;25.52;42.01;101541.69;5059852;28;20010;-66
2023/09/16 06:42:26;;;;;;;;;;;;;;;25.35;42.28;101512.91;5066358;27;20355;-66
2023/09/16 06:44:54;;;;;;;;;;;;;;;25.54;41.98;101546.81;5029891;28;20076;-66
2023/09/16 06:47:27;;;;;;;;;;;;;;;25.54;42.05;101542.31;5027539;28;19968;-66
2023/09/16 06:49:56;;;;;;;;;;;;;;;25.56;42.10;101542.09;5063386;28;20027;-66
2023/09/16 06:52:22;;;;;;;;;;;;;;;25.55;41.97;101535.13;5039915;28;19950;-65
2023/09/16 06:54:48;;;;;;;;;;;;;;;25.55;41.94;101541.28;5059248;28;20542;-64
2023/09/16 06:57:14;;;;;;;;;;;;;;;25.55;41.86;101540.47;4999875;28;19950;-64
2023/09/16 06:59:39;;;;;;;;;;;;;;;25.56;42.08;101540.25;5063148;28;20415;-65
2023/09/16 07:02:05;;;;;;;;;;;;;;;25.56;41.92;101540.25;5008800;28;20051;-64
2023/09/16 07:04:30;;;;;;;;;;;;;;;25.60;41.72;101544.16;5058256;28;19961;-64
2023/09/16 07:06:56;;;;;;;;;;;;;;;25.61;42.05;101540.47;5008126;28;20418;-64
2023/09/16 07:09:22;;;;;;;;;;;;;;;25.64;41.68;101541.91;5060232;28;19943;-64
2023/09/16 07:11:47;;;;;;;;;;;;;;;25.66;42.01;101547.03;5008227;28;19951;-64
2023/09/16 07:14:12;;;;;;;;;;;;;;;25.65;42.03;101546.22;5041450;28;19964;-65
2023/09/16 07:16:40;;;;;;;;;;;;;;;25.68;41.84;101545.88;5065856;28;20391;-65
2023/09/16 07:19:05;;;;;;;;;;;;;;;25.67;41.96;101549.50;5000538;28;20317;-69
2023/09/16 07:21:31;;;;;;;;;;;;;;;25.69;41.98;101546.69;5063145;28;19938;-69
2023/09/16 07:24:00;;;;;;;;;;;;;;;25.69;41.95;101544.84;5006524;28;20489;-69
2023/09/16 07:26:27;;;;;;;;;;;;;;;25.73;41.77;101542.59;5059339;28;19963;-69
2023/09/16 07:28:52;;;;;;;;;;;;;;;25.73;41.83;101542.59;5008343;28;21022;-63
2023/09/16 07:31:17;;;;;;;;;;;;;;;25.72;41.78;101543.63;5058955;28;19941;-64
2023/09/16 07:33:43;;;;;;;;;;;;;;;25.74;41.83;101549.56;5001105;28;20612;-66
2023/09/16 07:36:08;;;;;;;;;;;;;;;25.77;41.88;101551.84;5072821;28;19950;-65
2023/09/16 07:38:33;;;;;;;;;;;;;;;25.77;41.96;101544.66;5049213;28;20040;-67
2023/09/16 07:40:59;;;;;;;;;;;;;;;25.78;41.83;101548.13;5058161;28;19936;-66
2023/09/16 07:43:26;;;;;;;;;;;;;;;25.61;41.64;101513.81;5040246;28;19952;-67
2023/09/16 07:45:51;;;;;;;;;;;;;;;25.81;41.77;101553.06;5008375;28;19942;-68
2023/09/16 07:48:20;;;;;;;;;;;;;;;25.76;41.89;101548.34;5045050;28;20006;-65
2023/09/16 07:50:47;;;;;;;;;;;;;;;25.81;42.04;101556.56;5031180;28;19985;-65
2023/09/16 07:53:12;;;;;;;;;;;;;;;25.81;42.07;101553.88;5060176;28;19989;-65
2023/09/16 07:55:38;;;;;;;;;;;;;;;25.80;41.89;101562.09;5002200;28;19956;-65
2023/09/16 07:58:03;;;;;;;;;;;;;;;25.80;41.79;101564.75;5061862;28;20030;-65
2023/09/16 08:00:29;;;;;;;;;;;;;;;25.79;42.01;101568.47;5008293;28;19957;-67
2023/09/16 08:02:55;;;;;;;;;;;;;;;25.74;42.18;101563.72;5063563;28;19946;-67
2023/09/16 08:05:20;;;;;;;;;;;;;;;25.78;42.08;101570.31;5055807;28;19947;-67
2023/09/16 08:07:46;;;;;;;;;;;;;;;25.76;42.13;101567.03;5065636;28;19944;-67
2023/09/16 08:10:11;;;;;;;;;;;;;;;25.76;41.90;101566.19;5012718;28;19950;-67
2023/09/16 08:12:36;;;;;;;;;;;;;;;25.76;42.18;101569.69;5073638;28;19943;-67
2023/09/16 08:15:03;;;;;;;;;;;;;;;25.77;42.15;101568.66;5011556;28;19963;-65
2023/09/16 08:17:28;;;;;;;;;;;;;;;25.78;41.86;101567.63;5059405;28;20385;-66
2023/09/16 08:19:53;;;;;;;;;;;;;;;25.80;42.02;101570.91;4999195;28;19957;-65
2023/09/16 08:22:19;;;;;;;;;;;;;;;25.82;41.80;101565.38;5062010;28;19976;-65
2023/09/16 08:24:44;;;;;;;;;;;;;;;25.83;42.14;101569.69;5003941;28;19953;-66
2023/09/16 08:27:10;;;;;;;;;;;;;;;25.83;42.19;101575.84;5063637;28;19984;-66
2023/09/16 08:29:35;;;;;;;;;;;;;;;25.83;42.14;101570.50;5046591;28;20355;-65
2023/09/16 08:32:00;;;;;;;;;;;;;;;25.82;42.23;101565.38;5064899;28;19983;-65
2023/09/16 08:34:26;;;;;;;;;;;;;;;25.81;42.24;101569.06;5007584;28;19962;-66
2023/09/16 08:36:51;;;;;;;;;;;;;;;25.82;42.03;101568.88;5059133;28;20046;-66
2023/09/16 08:39:16;;;;;;;;;;;;;;;25.82;41.81;101568.06;5007642;28;20344;-66
2023/09/16 08:41:42;;;;;;;;;;;;;;;25.83;42.11;101575.03;5059903;28;20719;-66
2023/09/16 08:44:08;;;;;;;;;;;;;;;25.84;41.97;101569.47;5004853;28;19952;-66
2023/09/16 08:46:39;;;;;;;;;;;;;;;25.82;42.12;101568.88;5053339;28;20580;-66
2023/09/16 08:49:06;;;;;;;;;;;;;;;25.83;41.77;101562.50;5067235;28;19992;-66
2023/09/16 08:51:36;;;;;;;;;;;;;;;25.84;42.05;101572.16;5028929;28;19940;-66
2023/09/16 08:54:04;;;;;;;;;;;;;;;25.89;41.86;101569.72;5061106;28;19980;-65
2023/09/16 08:56:31;;;;;;;;;;;;;;;25.76;42.17;101555.53;5020149;28;19938;-65
2023/09/16 08:58:59;;;;;;;;;;;;;;;25.87;41.90;101569.09;5052445;28;19943;-65
2023/09/16 09:01:25;;;;;;;;;;;;;;;25.72;42.16;101535.63;5032156;28;19948;-64
2023/09/16 09:03:53;;;;;;;;;;;;;;;25.87;42.27;101569.09;5037473;28;19945;-65
2023/09/16 09:06:20;;;;;;;;;;;;;;;25.72;42.06;101539.09;5048340;28;19939;-64
2023/09/16 09:08:46;;;;;;;;;;;;;;;25.90;42.09;101574.03;5016579;28;20065;-65
2023/09/16 09:11:14;;;;;;;;;;;;;;;25.90;42.29;101576.72;5061065;28;20052;-65
2023/09/16 09:13:45;;;;;;;;;;;;;;;25.94;42.17;101571.78;5003043;28;19963;-65
2023/09/16 09:16:11;;;;;;;;;;;;;;;25.94;42.15;101582.44;5067968;28;20451;-65
2023/09/16 09:18:37;;;;;;;;;;;;;;;25.95;41.96;101577.94;5004220;28;19951;-65
2023/09/16 09:21:04;;;;;;;;;;;;;;;25.93;42.32;101580.00;5065424;28;19983;-65
2023/09/16 09:23:30;;;;;;;;;;;;;;;25.94;42.22;101582.44;5008659;28;20568;-66
2023/09/16 09:25:56;;;;;;;;;;;;;;;25.96;42.11;101575.06;5062213;28;20061;-67
2023/09/16 09:28:22;;;;;;;;;;;;;;;25.97;42.34;101575.88;5008879;28;20470;-67
2023/09/16 09:30:48;;;;;;;;;;;;;;;25.95;42.00;101577.94;5064763;28;19952;-66
2023/09/16 09:33:19;;;;;;;;;;;;;;;25.98;42.32;101578.34;5048157;28;20344;-66
2023/09/16 09:35:44;;;;;;;;;;;;;;;25.99;41.83;101581.84;5073047;28;19946;-66
2023/09/16 09:38:10;;;;;;;;;;;;;;;25.96;42.20;101583.06;5013266;28;19953;-67
2023/09/16 09:40:35;;;;;;;;;;;;;;;25.97;42.32;101583.88;5067747;28;19939;-66
2023/09/16 09:43:01;;;;;;;;;;;;;;;25.96;42.28;101574.25;5013039;28;20461;-66
2023/09/16 09:45:27;;;;;;;;;;;;;;;25.96;41.97;101582.25;5064573;28;19979;-66
2023/09/16 09:47:53;;;;;;;;;;;;;;;25.96;42.33;101579.59;5010009;28;20066;-66
2023/09/16 09:50:19;;;;;;;;;;;;;;;25.97;41.94;101578.56;5068100;28;20369;-67
2023/09/16 09:52:46;;;;;;;;;;;;;;;25.94;42.42;101576.28;5010513;28;20028;-65
2023/09/16 09:55:12;;;;;;;;;;;;;;;25.97;42.06;101578.56;5049789;28;19962;-69
2023/09/16 09:57:38;;;;;;;;;;;;;;;25.97;42.30;101578.56;5065884;28;19936;-70
2023/09/16 10:00:04;;;;;;;;;;;;;;;25.98;42.34;101577.53;5071844;28;19963;-69
2023/09/16 10:02:39;;;;;;;;;;;;;;;25.98;42.25;101582.88;5014925;28;19962;-65
2023/09/16 10:05:05;;;;;;;;;;;;;;;25.98;42.29;101582.88;5069142;28;19932;-65
2023/09/16 10:07:34;;;;;;;;;;;;;;;25.99;42.19;101579.16;5011488;28;19950;-65
2023/09/16 10:09:59;;;;;;;;;;;;;;;25.99;42.04;101571.16;5070388;28;20426;-65
2023/09/16 10:12:25;;;;;;;;;;;;;;;26.00;42.06;101576.28;5009906;28;19961;-67
2023/09/16 10:14:53;;;;;;;;;;;;;;;25.98;41.93;101570.34;5042719;28;19956;-67
2023/09/16 10:17:20;;;;;;;;;;;;;;;25.99;42.01;101565.81;5067973;28;21069;-67
2023/09/16 10:19:46;;;;;;;;;;;;;;;26.01;41.91;101569.09;5007806;28;20358;-67
2023/09/16 10:22:14;;;;;;;;;;;;;;;26.02;42.22;101570.75;5058780;28;19958;-67
2023/09/16 10:24:43;;;;;;;;;;;;;;;26.00;42.24;101573.63;5010663;28;20479;-68
2023/09/16 10:27:11;;;;;;;;;;;;;;;26.02;41.95;101570.75;5062857;28;19967;-67
2023/09/16 10:29:38;;;;;;;;;;;;;;;26.02;41.95;101568.91;5007213;28;21732;-65
2023/09/16 10:32:04;;;;;;;;;;;;;;;26.03;42.22;101567.06;5064974;28;19954;-65
2023/09/16 10:34:30;;;;;;;;;;;;;;;26.02;41.82;101562.75;5047440;28;20420;-65
2023/09/16 10:36:55;;;;;;;;;;;;;;;26.04;42.10;101560.72;5079131;28;19949;-64
2023/09/16 10:39:21;;;;;;;;;;;;;;;26.03;42.09;101559.06;5004790;28;19954;-70
2023/09/16 10:41:47;;;;;;;;;;;;;;;26.04;41.96;101555.38;5057045;28;19941;-70
2023/09/16 10:44:14;;;;;;;;;;;;;;;26.03;41.80;101557.22;5010619;28;19947;-69
2023/09/16 10:46:40;;;;;;;;;;;;;;;26.03;41.83;101559.91;5062110;28;19946;-70
2023/09/16 10:49:08;;;;;;;;;;;;;;;26.03;42.24;101561.72;5002788;28;19948;-65
2023/09/16 10:51:38;;;;;;;;;;;;;;;26.04;41.84;101550.06;5055387;28;19950;-71
2023/09/16 10:54:09;;;;;;;;;;;;;;;26.02;42.16;101552.88;5062620;28;20423;-71
2023/09/16 10:56:39;;;;;;;;;;;;;;;26.04;42.22;101552.72;5005243;28;19975;-71
2023/09/16 10:59:10;;;;;;;;;;;;;;;26.04;42.07;101553.53;5065549;28;20518;-70
2023/09/16 11:01:39;;;;;;;;;;;;;;;26.03;42.14;101553.72;5014975;28;19946;-71
2023/09/16 11:04:13;;;;;;;;;;;;;;;26.03;42.18;101546.56;5061355;28;20624;-71
2023/09/16 11:06:38;;;;;;;;;;;;;;;26.03;42.05;101546.56;5002303;28;19952;-70
2023/09/16 11:09:05;;;;;;;;;;;;;;;26.02;42.27;101555.56;5061082;28;19976;-71
2023/09/16 11:11:41;;;;;;;;;;;;;;;26.04;42.18;101548.19;5061217;28;19955;-71
2023/09/16 11:14:07;;;;;;;;;;;;;;;26.04;42.40;101539.38;5060626;28;19981;-70
2023/09/16 11:17:05;;;;;;;;;;;;;;;26.07;42.20;101534.44;5007086;28;20592;-70
2023/09/16 11:19:31;;;;;;;;;;;;;;;25.89;41.95;101500.34;5013837;28;20432;-70
2023/09/16 11:21:58;;;;;;;;;;;;;;;26.05;42.22;101533.00;5045578;28;19949;-70
2023/09/16 11:24:27;;;;;;;;;;;;;;;25.87;42.14;101501.59;5042133;28;19977;-69
2023/09/16 11:26:56;;;;;;;;;;;;;;;26.06;42.16;101538.13;5036042;28;19965;-70
2023/09/16 11:29:22;;;;;;;;;;;;;;;26.05;42.09;101541.84;5049918;28;19936;-66
2023/09/16 11:31:48;;;;;;;;;;;;;;;26.06;41.78;101537.31;5064771;28;19947;-65
2023/09/16 11:34:17;;;;;;;;;;;;;;;26.16;41.65;101543.88;5003773;28;20613;-66
2023/09/16 11:36:46;;;;;;;;;;;;;;;26.14;41.57;101537.09;5058987;28;19943;-66
2023/09/16 11:39:15;;;;;;;;;;;;;;;26.11;41.95;101538.34;5003598;28;20057;-65
2023/09/16 11:41:40;;;;;;;;;;;;;;;26.10;41.98;101536.69;5063653;28;20004;-66
2023/09/16 11:44:06;;;;;;;;;;;;;;;26.16;41.62;101537.72;5008478;28;20444;-66
2023/09/16 11:46:32;;;;;;;;;;;;;;;26.11;42.07;101540.19;5056414;28;19938;-66
2023/09/16 11:49:07;;;;;;;;;;;;;;;26.10;42.05;101535.88;5002139;28;19953;-65
2023/09/16 11:51:36;;;;;;;;;;;;;;;26.09;41.88;101532.38;5057031;28;20065;-67
2023/09/16 11:54:02;;;;;;;;;;;;;;;26.12;41.71;101523.97;5044866;28;19967;-67
2023/09/16 11:56:29;;;;;;;;;;;;;;;26.09;41.86;101520.88;5063727;28;20435;-66
2023/09/16 11:58:57;;;;;;;;;;;;;;;26.11;41.98;101525.00;5002810;28;19950;-67
2023/09/16 12:01:29;;;;;;;;;;;;;;;26.10;42.04;101520.69;5058695;28;19963;-67
2023/09/16 12:03:55;;;;;;;;;;;;;;;26.10;41.92;101525.19;5010350;28;19950;-68
2023/09/16 12:06:24;;;;;;;;;;;;;;;26.10;41.72;101520.69;5059311;28;19940;-68
2023/09/16 12:08:49;;;;;;;;;;;;;;;26.11;41.67;101522.31;5002975;28;20154;-68
2023/09/16 12:11:15;;;;;;;;;;;;;;;26.12;41.78;101515.13;5058509;28;20688;-68
2023/09/16 12:13:41;;;;;;;;;;;;;;;26.12;41.65;101517.81;4999716;28;20403;-68
2023/09/16 12:16:06;;;;;;;;;;;;;;;26.12;41.76;101521.28;5051075;28;19956;-69
2023/09/16 12:18:32;;;;;;;;;;;;;;;26.13;41.64;101514.09;5070060;28;19993;-69
2023/09/16 12:20:57;;;;;;;;;;;;;;;26.15;41.63;101520.06;5008137;28;19955;-67
2023/09/16 12:23:26;;;;;;;;;;;;;;;26.15;41.70;101523.56;5061319;28;19951;-67
2023/09/16 12:25:51;;;;;;;;;;;;;;;26.14;41.80;101513.09;5011680;28;20474;-68
2023/09/16 12:28:19;;;;;;;;;;;;;;;26.15;41.98;101514.72;5059173;28;19990;-67
2023/09/16 12:30:46;;;;;;;;;;;;;;;26.16;41.66;101513.69;5002843;28;20000;-67
2023/09/16 12:33:12;;;;;;;;;;;;;;;26.15;41.71;101517.38;5056906;28;20398;-68